Time;durP1;ratioP1;P1;durP2;ratioP2;P2;SDS_P1;SDS_P2;PMS_P1;PMS_P2;Temp;Humidity;BMP_temperature;BMP_pressure;BME280_temperature;BME280_humidity;BME280_pressure;Samples;Min_cycle;Max_cycle;Signal;HPM_P1;HPM_P2
2023/07/13 00:02:07;;;;;;;0.70;0.70;;;19.70;99.90;;;;;;5032827;28;20022;-75
2023/07/13 00:04:33;;;;;;;0.90;0.60;;;19.80;99.90;;;;;;5034293;28;20024;-76
2023/07/13 00:06:58;;;;;;;1.75;0.57;;;19.80;99.90;;;;;;5032681;28;20025;-75
2023/07/13 00:09:24;;;;;;;0.85;0.70;;;19.90;99.90;;;;;;5031116;28;20037;-76
2023/07/13 00:11:53;;;;;;;2.95;1.30;;;19.90;99.90;;;;;;5032719;28;20026;-76
2023/07/13 00:14:19;;;;;;;1.65;0.38;;;19.70;99.90;;;;;;5032802;28;20056;-77
2023/07/13 00:16:45;;;;;;;0.63;0.45;;;19.70;99.90;;;;;;5034441;28;20022;-76
2023/07/13 00:19:12;;;;;;;0.93;0.50;;;19.70;99.90;;;;;;5031874;28;20021;-76
2023/07/13 00:21:39;;;;;;;0.32;0.20;;;19.80;99.90;;;;;;5033511;28;20025;-76
2023/07/13 00:24:06;;;;;;;1.33;0.73;;;19.70;99.90;;;;;;5031525;28;20028;-77
2023/07/13 00:26:32;;;;;;;1.75;0.75;;;19.60;99.90;;;;;;5031374;28;20521;-78
2023/07/13 00:28:58;;;;;;;1.88;0.70;;;19.50;99.90;;;;;;5031698;28;20036;-76
2023/07/13 00:31:25;;;;;;;0.55;0.55;;;19.40;99.90;;;;;;5034122;28;20390;-76
2023/07/13 00:33:51;;;;;;;1.45;0.50;;;19.30;99.90;;;;;;5033544;28;20028;-77
2023/07/13 00:36:17;;;;;;;1.45;0.60;;;19.30;99.90;;;;;;5034100;28;20018;-76
2023/07/13 00:38:43;;;;;;;2.03;0.70;;;19.30;99.90;;;;;;5032656;28;20036;-77
2023/07/13 00:41:09;;;;;;;1.48;0.73;;;19.20;99.90;;;;;;5033011;28;20025;-75
2023/07/13 00:43:34;;;;;;;0.45;0.43;;;19.20;99.90;;;;;;5033293;28;20108;-74
2023/07/13 00:46:17;;;;;;;2.42;0.80;;;19.20;99.90;;;;;;5037964;28;20060;-76
2023/07/13 00:48:45;;;;;;;2.00;1.00;;;19.10;99.90;;;;;;5036263;28;20045;-75
2023/07/13 00:51:12;;;;;;;2.33;1.20;;;19.10;99.90;;;;;;5036734;28;20021;-76
2023/07/13 00:53:38;;;;;;;2.58;0.90;;;19.20;99.90;;;;;;5036654;28;20083;-75
2023/07/13 00:56:04;;;;;;;0.73;0.73;;;19.20;99.90;;;;;;5036005;28;20504;-76
2023/07/13 00:58:31;;;;;;;1.75;0.90;;;19.20;99.90;;;;;;5037822;28;20029;-76
2023/07/13 01:00:56;;;;;;;2.55;0.60;;;19.10;99.90;;;;;;5035234;28;20025;-76
2023/07/13 01:03:22;;;;;;;0.82;0.70;;;19.00;99.90;;;;;;5037749;28;20465;-76
2023/07/13 01:05:49;;;;;;;0.60;0.50;;;19.10;99.90;;;;;;5036373;28;20135;-76
2023/07/13 01:08:15;;;;;;;0.47;0.47;;;19.10;99.90;;;;;;5037434;28;20018;-77
2023/07/13 01:10:50;;;;;;;0.90;0.80;;;19.10;99.90;;;;;;5035311;28;20506;-76
2023/07/13 01:13:15;;;;;;;0.90;0.63;;;19.10;99.90;;;;;;5035100;28;20025;-76
2023/07/13 01:15:47;;;;;;;0.57;0.55;;;19.10;99.90;;;;;;5035372;28;20393;-78
2023/07/13 01:18:25;;;;;;;0.55;0.55;;;19.10;99.90;;;;;;5035651;28;20508;-76
2023/07/13 01:20:56;;;;;;;1.58;0.60;;;19.20;99.90;;;;;;5034919;28;20029;-77
2023/07/13 01:23:24;;;;;;;1.83;0.73;;;19.20;99.90;;;;;;5034404;28;20033;-76
2023/07/13 01:25:50;;;;;;;0.60;0.60;;;19.10;99.90;;;;;;5037276;28;20469;-76
2023/07/13 01:28:16;;;;;;;0.70;0.60;;;19.00;99.90;;;;;;5035468;28;20025;-76
2023/07/13 01:30:45;;;;;;;1.27;0.70;;;19.10;99.90;;;;;;5035488;28;20036;-76
2023/07/13 01:33:12;;;;;;;0.50;0.50;;;19.10;99.90;;;;;;5035778;28;20025;-76
2023/07/13 01:35:37;;;;;;;1.02;0.85;;;19.10;99.90;;;;;;5037269;28;20025;-76
2023/07/13 01:38:04;;;;;;;1.60;0.80;;;19.20;99.90;;;;;;5037185;28;20025;-76
2023/07/13 01:40:30;;;;;;;0.93;0.80;;;19.30;99.90;;;;;;5037122;28;20029;-76
2023/07/13 01:42:57;;;;;;;0.85;0.80;;;19.30;99.90;;;;;;5034500;28;20021;-76
2023/07/13 01:45:23;;;;;;;0.50;0.50;;;19.30;99.90;;;;;;5035282;28;20025;-77
2023/07/13 01:47:48;;;;;;;1.23;0.60;;;19.30;99.90;;;;;;5035928;28;20030;-75
2023/07/13 01:50:14;;;;;;;0.80;0.80;;;19.30;99.90;;;;;;5034010;28;20025;-76
2023/07/13 01:52:40;;;;;;;1.30;0.70;;;19.40;99.90;;;;;;5034865;28;20037;-76
2023/07/13 01:55:06;;;;;;;1.50;0.65;;;19.50;99.90;;;;;;5032115;28;20021;-77
2023/07/13 01:57:31;;;;;;;1.08;0.68;;;19.60;99.90;;;;;;5033978;28;20025;-76
2023/07/13 01:59:57;;;;;;;0.57;0.32;;;19.60;99.90;;;;;;5033513;28;20025;-76
2023/07/13 02:02:23;;;;;;;1.10;0.77;;;19.50;99.90;;;;;;5036093;28;20069;-77
2023/07/13 02:04:48;;;;;;;2.35;1.10;;;19.50;99.90;;;;;;5035839;28;20051;-76
2023/07/13 02:07:15;;;;;;;0.77;0.77;;;19.30;99.90;;;;;;5034514;28;20424;-76
2023/07/13 02:09:41;;;;;;;0.70;0.70;;;19.20;99.90;;;;;;5036458;28;20112;-75
2023/07/13 02:12:07;;;;;;;2.70;1.17;;;19.20;99.90;;;;;;5037029;28;20021;-75
2023/07/13 02:14:33;;;;;;;1.63;0.93;;;19.00;99.90;;;;;;5035703;28;20022;-75
2023/07/13 02:16:59;;;;;;;2.33;0.95;;;19.00;99.90;;;;;;5034972;28;20118;-75
2023/07/13 02:19:24;;;;;;;0.95;0.60;;;18.90;99.90;;;;;;5035047;28;20072;-76
2023/07/13 02:21:50;;;;;;;1.08;1.05;;;18.90;99.90;;;;;;5034799;28;20113;-76
2023/07/13 02:24:17;;;;;;;2.95;1.00;;;18.90;99.90;;;;;;5036635;28;20072;-77
2023/07/13 02:26:46;;;;;;;0.30;0.30;;;19.00;99.90;;;;;;5036210;28;20022;-78
2023/07/13 02:29:12;;;;;;;5.68;0.90;;;18.80;99.90;;;;;;5036999;28;20079;-75
2023/07/13 02:31:37;;;;;;;2.65;0.73;;;18.80;99.90;;;;;;5035508;28;20548;-76
2023/07/13 02:34:03;;;;;;;3.17;0.80;;;18.70;99.90;;;;;;5036775;28;20128;-78
2023/07/13 02:36:30;;;;;;;0.95;0.43;;;18.60;99.90;;;;;;5036916;28;20435;-78
2023/07/13 02:38:55;;;;;;;0.95;0.50;;;18.50;99.90;;;;;;5036396;28;20064;-77
2023/07/13 02:41:22;;;;;;;2.05;0.90;;;18.40;99.90;;;;;;5035853;28;20026;-77
2023/07/13 02:43:48;;;;;;;2.08;1.13;;;18.30;99.90;;;;;;5034297;28;20114;-78
2023/07/13 02:46:14;;;;;;;0.52;0.50;;;18.20;99.90;;;;;;5034664;28;20108;-76
2023/07/13 02:48:40;;;;;;;1.40;0.90;;;18.30;99.90;;;;;;5034134;28;20025;-77
2023/07/13 02:51:07;;;;;;;5.63;1.10;;;18.30;99.90;;;;;;5033386;28;20025;-77
2023/07/13 02:53:33;;;;;;;1.45;0.60;;;18.30;99.90;;;;;;5034885;28;20049;-76
2023/07/13 02:55:59;;;;;;;1.40;0.43;;;18.30;99.90;;;;;;5033181;28;20105;-76
2023/07/13 02:58:25;;;;;;;2.05;0.90;;;18.40;99.90;;;;;;5032440;28;20074;-76
2023/07/13 03:00:51;;;;;;;4.22;0.80;;;18.30;99.90;;;;;;5032839;28;20021;-75
2023/07/13 03:03:18;;;;;;;1.27;0.70;;;18.30;99.90;;;;;;5034181;28;20021;-76
2023/07/13 03:05:49;;;;;;;1.35;0.90;;;18.30;99.90;;;;;;5035128;28;20079;-76
2023/07/13 03:08:15;;;;;;;2.38;0.80;;;18.30;99.90;;;;;;5035054;28;20032;-76
2023/07/13 03:10:41;;;;;;;2.35;0.73;;;18.30;99.90;;;;;;5032500;28;20037;-75
2023/07/13 03:13:07;;;;;;;1.45;1.00;;;18.20;99.90;;;;;;5033453;28;20032;-75
2023/07/13 03:15:32;;;;;;;0.85;0.65;;;18.30;99.90;;;;;;5033616;28;20083;-76
2023/07/13 03:17:58;;;;;;;1.52;1.00;;;18.30;99.90;;;;;;5032303;28;20120;-76
2023/07/13 03:20:23;;;;;;;1.40;0.70;;;18.30;99.90;;;;;;5032172;28;20502;-76
2023/07/13 03:22:49;;;;;;;0.98;0.85;;;18.30;99.90;;;;;;5033579;28;20025;-76
2023/07/13 03:25:15;;;;;;;2.58;1.02;;;18.30;99.90;;;;;;5033241;28;20552;-76
2023/07/13 03:27:40;;;;;;;1.00;0.45;;;18.40;99.90;;;;;;5033677;28;20117;-76
2023/07/13 03:30:07;;;;;;;1.05;0.82;;;18.40;99.90;;;;;;5033590;28;20055;-77
2023/07/13 03:32:33;;;;;;;3.30;0.65;;;18.40;99.90;;;;;;5033049;28;20513;-77
2023/07/13 03:34:58;;;;;;;2.70;0.88;;;18.50;99.90;;;;;;5033900;28;20029;-76
2023/07/13 03:37:24;;;;;;;1.80;0.70;;;18.40;99.90;;;;;;5032580;28;20049;-75
2023/07/13 03:39:50;;;;;;;2.13;0.93;;;18.50;99.90;;;;;;5033286;28;20064;-76
2023/07/13 03:42:16;;;;;;;1.50;0.85;;;18.40;99.90;;;;;;5033955;28;20104;-75
2023/07/13 03:44:45;;;;;;;2.88;0.75;;;18.40;99.90;;;;;;5031757;28;20483;-76
2023/07/13 03:47:11;;;;;;;5.70;0.93;;;18.40;99.90;;;;;;5032509;28;20032;-78
2023/07/13 03:49:37;;;;;;;1.98;1.20;;;18.30;99.90;;;;;;5032169;28;20033;-76
2023/07/13 03:52:03;;;;;;;0.75;0.65;;;18.30;99.90;;;;;;5033432;28;20112;-76
2023/07/13 03:54:29;;;;;;;5.03;1.13;;;18.30;99.90;;;;;;5033031;28;20040;-76
2023/07/13 03:56:55;;;;;;;1.98;1.00;;;18.30;99.90;;;;;;5032946;28;20027;-76
2023/07/13 03:59:21;;;;;;;3.28;0.98;;;18.20;99.90;;;;;;5032918;28;20033;-76
2023/07/13 04:01:46;;;;;;;0.82;0.80;;;18.30;99.90;;;;;;5032802;28;20021;-76
2023/07/13 04:04:12;;;;;;;1.38;0.80;;;18.30;99.90;;;;;;5033759;28;20026;-76
2023/07/13 04:06:38;;;;;;;2.67;1.25;;;18.30;99.90;;;;;;5033867;28;20486;-76
2023/07/13 04:09:09;;;;;;;1.48;0.80;;;18.20;99.90;;;;;;5034859;28;20021;-75
2023/07/13 04:11:36;;;;;;;2.50;1.25;;;18.30;99.90;;;;;;5034484;28;20551;-76
2023/07/13 04:14:02;;;;;;;3.50;1.17;;;18.40;99.90;;;;;;5033615;28;20022;-76
2023/07/13 04:16:28;;;;;;;1.58;0.98;;;18.40;99.90;;;;;;5033803;28;20025;-76
2023/07/13 04:18:59;;;;;;;1.02;0.90;;;18.50;99.90;;;;;;5035144;28;20033;-76
2023/07/13 04:21:28;;;;;;;4.85;0.85;;;18.50;99.90;;;;;;5039135;28;20025;-76
2023/07/13 04:23:54;;;;;;;2.65;0.98;;;18.50;99.90;;;;;;5036824;28;20022;-76
2023/07/13 04:26:20;;;;;;;2.25;1.15;;;18.50;99.90;;;;;;5036829;28;20133;-78
2023/07/13 04:28:48;;;;;;;1.35;1.00;;;18.60;99.90;;;;;;5035407;28;20112;-75
2023/07/13 04:31:14;;;;;;;4.82;0.98;;;18.60;99.90;;;;;;5037037;28;20042;-76
2023/07/13 04:33:39;;;;;;;1.75;0.88;;;18.70;99.90;;;;;;5037742;28;20501;-81
2023/07/13 04:36:05;;;;;;;2.67;1.55;;;18.60;99.90;;;;;;5036378;28;20021;-77
2023/07/13 04:38:32;;;;;;;1.08;0.70;;;18.60;99.90;;;;;;5034269;28;20033;-78
2023/07/13 04:41:04;;;;;;;0.88;0.70;;;18.80;99.90;;;;;;5034226;28;20111;-76
2023/07/13 04:43:31;;;;;;;2.28;1.00;;;19.80;99.90;;;;;;5033953;28;20029;-78
2023/07/13 04:46:02;;;;;;;4.18;1.20;;;20.40;99.90;;;;;;5036095;28;20029;-77
2023/07/13 04:48:27;;;;;;;1.85;0.80;;;21.00;99.90;;;;;;5034673;28;20043;-79
2023/07/13 04:50:58;;;;;;;1.30;1.00;;;21.00;99.90;;;;;;5035161;28;20025;-77
2023/07/13 04:53:24;;;;;;;2.42;1.67;;;21.00;99.90;;;;;;5033700;28;20448;-78
2023/07/13 04:55:49;;;;;;;1.60;1.00;;;21.10;99.90;;;;;;5033967;28;20025;-78
2023/07/13 04:58:15;;;;;;;0.63;0.63;;;21.40;99.90;;;;;;5033852;28;20105;-78
2023/07/13 05:00:41;;;;;;;5.22;1.75;;;21.50;99.90;;;;;;5035132;28;20017;-77
2023/07/13 05:03:06;;;;;;;2.85;1.08;;;21.80;99.90;;;;;;5035247;28;20082;-78
2023/07/13 05:05:32;;;;;;;3.28;0.82;;;21.80;99.90;;;;;;5033785;28;20060;-79
2023/07/13 05:07:58;;;;;;;2.55;0.55;;;21.50;99.90;;;;;;5033814;28;20040;-78
2023/07/13 05:10:24;;;;;;;6.88;0.70;;;21.90;99.90;;;;;;5034759;28;20041;-77
2023/07/13 05:12:49;;;;;;;2.40;0.80;;;21.80;99.90;;;;;;5033909;28;20083;-79
2023/07/13 05:15:20;;;;;;;1.83;1.10;;;22.10;99.90;;;;;;5033624;28;20026;-78
2023/07/13 05:17:47;;;;;;;2.65;0.65;;;21.90;99.90;;;;;;5033426;28;20505;-76
2023/07/13 05:20:12;;;;;;;2.88;1.00;;;21.50;99.90;;;;;;5033622;28;20036;-76
2023/07/13 05:22:38;;;;;;;0.65;0.63;;;21.60;99.90;;;;;;5033671;28;20425;-77
2023/07/13 05:25:07;;;;;;;1.67;0.93;;;21.90;99.90;;;;;;5033349;28;20402;-77
2023/07/13 05:27:34;;;;;;;2.92;0.65;;;22.10;99.90;;;;;;5033421;28;20172;-78
2023/07/13 05:30:00;;;;;;;0.73;0.73;;;22.30;99.90;;;;;;5033166;28;20037;-77
2023/07/13 05:32:26;;;;;;;1.95;0.80;;;21.90;99.90;;;;;;5033541;28;20026;-77
2023/07/13 05:34:52;;;;;;;4.55;1.13;;;21.50;99.90;;;;;;5033265;28;20073;-75
2023/07/13 05:37:18;;;;;;;1.75;0.93;;;21.60;99.90;;;;;;5034246;28;20049;-77
2023/07/13 05:39:44;;;;;;;2.92;0.98;;;21.60;99.90;;;;;;5033724;28;20021;-77
2023/07/13 05:42:09;;;;;;;2.03;0.55;;;21.70;99.90;;;;;;5034531;28;20045;-77
2023/07/13 05:44:35;;;;;;;1.75;0.85;;;22.00;99.90;;;;;;5033144;28;20021;-77
2023/07/13 05:47:01;;;;;;;1.75;1.00;;;22.00;99.90;;;;;;5034389;28;20036;-77
2023/07/13 05:49:26;;;;;;;1.50;0.50;;;22.10;99.90;;;;;;5034337;28;20033;-78
2023/07/13 05:51:52;;;;;;;1.73;0.80;;;21.90;99.90;;;;;;5032586;28;20026;-79
2023/07/13 05:54:17;;;;;;;1.77;0.80;;;22.10;99.90;;;;;;5032957;28;20030;-78
2023/07/13 05:56:43;;;;;;;1.25;0.80;;;22.00;99.90;;;;;;5032743;28;20524;-78
2023/07/13 05:59:09;;;;;;;0.50;0.50;;;22.20;99.90;;;;;;5032712;28;20053;-77
2023/07/13 06:01:34;;;;;;;1.70;1.23;;;22.50;99.90;;;;;;5032921;28;20022;-78
2023/07/13 06:04:00;;;;;;;1.17;1.02;;;22.40;99.90;;;;;;5032808;28;20032;-78
2023/07/13 06:06:26;;;;;;;0.93;0.57;;;22.30;99.90;;;;;;5033927;28;20021;-77
2023/07/13 06:08:52;;;;;;;1.23;0.75;;;22.30;99.90;;;;;;5032537;28;20563;-76
2023/07/13 06:11:20;;;;;;;1.50;0.68;;;22.50;99.90;;;;;;5032418;28;20117;-76
2023/07/13 06:13:46;;;;;;;1.42;0.70;;;22.80;99.90;;;;;;5032689;28;20112;-76
2023/07/13 06:16:12;;;;;;;1.73;0.68;;;22.70;99.90;;;;;;5034278;28;20108;-76
2023/07/13 06:18:40;;;;;;;1.63;0.90;;;22.70;99.90;;;;;;5033743;28;20021;-79
2023/07/13 06:21:18;;;;;;;0.70;0.52;;;22.50;99.90;;;;;;5032527;28;20028;-76
2023/07/13 06:23:47;;;;;;;2.45;1.30;;;22.90;99.90;;;;;;5032471;28;20021;-77
2023/07/13 06:26:13;;;;;;;0.85;0.80;;;23.10;99.90;;;;;;5031913;28;20060;-77
2023/07/13 06:28:39;;;;;;;4.80;1.60;;;23.10;99.90;;;;;;5032168;28;20060;-77
2023/07/13 06:31:07;;;;;;;1.75;1.00;;;23.20;99.90;;;;;;5031854;28;20486;-76
2023/07/13 06:33:33;;;;;;;2.13;0.68;;;23.40;99.90;;;;;;5033408;28;20025;-77
2023/07/13 06:35:59;;;;;;;2.97;1.20;;;23.50;99.90;;;;;;5031819;28;20029;-76
2023/07/13 06:38:25;;;;;;;0.60;0.60;;;23.50;99.90;;;;;;5031954;28;20029;-78
2023/07/13 06:40:50;;;;;;;7.75;2.75;;;23.60;99.90;;;;;;5034828;28;20468;-76
2023/07/13 06:43:16;;;;;;;1.08;0.82;;;23.50;99.90;;;;;;5032525;28;20029;-78
2023/07/13 06:45:49;;;;;;;1.90;0.80;;;23.60;99.90;;;;;;5032849;28;20021;-77
2023/07/13 06:48:16;;;;;;;1.65;0.77;;;23.70;99.90;;;;;;5031409;28;20509;-76
2023/07/13 06:50:42;;;;;;;2.85;0.77;;;23.60;99.90;;;;;;5032834;28;20025;-77
2023/07/13 06:53:08;;;;;;;0.60;0.60;;;23.90;99.90;;;;;;5032954;28;20021;-77
2023/07/13 06:55:34;;;;;;;3.53;0.82;;;23.90;99.90;;;;;;5032819;28;20040;-77
2023/07/13 06:58:00;;;;;;;0.65;0.50;;;23.90;99.90;;;;;;5032331;28;20025;-78
2023/07/13 07:00:26;;;;;;;1.02;0.50;;;24.10;99.90;;;;;;5031421;28;20021;-80
2023/07/13 07:02:51;;;;;;;0.82;0.40;;;24.00;99.90;;;;;;5030708;28;20022;-76
2023/07/13 07:05:17;;;;;;;2.05;0.55;;;23.90;99.90;;;;;;5033384;28;20097;-77
2023/07/13 07:07:43;;;;;;;1.77;0.60;;;23.70;99.90;;;;;;5031864;28;20025;-77
2023/07/13 07:10:08;;;;;;;0.73;0.50;;;23.70;99.90;;;;;;5032189;28;20052;-76
2023/07/13 07:12:34;;;;;;;0.98;0.40;;;23.90;99.90;;;;;;5033836;28;20082;-77
2023/07/13 07:15:00;;;;;;;0.35;0.35;;;24.00;99.90;;;;;;5034079;28;20473;-76
2023/07/13 07:17:26;;;;;;;2.55;0.68;;;24.00;99.90;;;;;;5032410;28;20051;-76
2023/07/13 07:19:53;;;;;;;1.85;1.55;;;24.00;99.90;;;;;;5034339;28;20052;-76
2023/07/13 07:22:20;;;;;;;1.42;0.52;;;24.10;99.90;;;;;;5035711;28;20022;-78
2023/07/13 07:24:46;;;;;;;0.65;0.43;;;24.20;99.90;;;;;;5034878;28;20036;-76
2023/07/13 07:27:11;;;;;;;0.47;0.47;;;24.20;99.90;;;;;;5033478;28;20022;-78
2023/07/13 07:29:37;;;;;;;0.40;0.32;;;24.40;99.90;;;;;;5031875;28;20398;-75
2023/07/13 07:32:03;;;;;;;0.73;0.73;;;24.60;99.90;;;;;;5031849;28;20698;-76
2023/07/13 07:34:30;;;;;;;0.57;0.52;;;24.80;99.90;;;;;;5031456;28;20040;-77
2023/07/13 07:37:01;;;;;;;0.60;0.60;;;24.80;99.90;;;;;;5033315;28;20017;-76
2023/07/13 07:39:27;;;;;;;0.40;0.38;;;24.80;99.80;;;;;;5031047;28;20104;-77
2023/07/13 07:41:53;;;;;;;1.08;0.73;;;24.90;98.50;;;;;;5031754;28;20504;-77
2023/07/13 07:44:19;;;;;;;0.40;0.40;;;25.00;95.10;;;;;;5033623;28;20026;-75
2023/07/13 07:46:44;;;;;;;2.75;0.50;;;25.10;94.80;;;;;;5034593;28;20028;-76
2023/07/13 07:49:10;;;;;;;0.47;0.40;;;25.00;95.60;;;;;;5032996;28;20075;-77
2023/07/13 07:51:36;;;;;;;0.93;0.50;;;25.00;95.30;;;;;;5032256;28;20387;-77
2023/07/13 07:54:04;;;;;;;0.63;0.50;;;25.20;96.60;;;;;;5031632;28;20025;-77
2023/07/13 07:56:29;;;;;;;1.35;0.70;;;25.40;97.20;;;;;;5032656;28;20449;-78
2023/07/13 07:58:55;;;;;;;0.35;0.35;;;25.50;94.80;;;;;;5031908;28;20022;-77
2023/07/13 08:01:21;;;;;;;1.65;0.47;;;25.50;93.30;;;;;;5032527;28;20033;-77
2023/07/13 08:03:47;;;;;;;0.50;0.50;;;25.40;94.10;;;;;;5031997;28;20032;-77
2023/07/13 08:06:13;;;;;;;0.88;0.73;;;25.40;93.30;;;;;;5033026;28;20049;-76
2023/07/13 08:08:39;;;;;;;0.80;0.60;;;25.40;93.60;;;;;;5031522;28;20032;-77
2023/07/13 08:11:08;;;;;;;2.53;0.55;;;25.40;94.20;;;;;;5031695;28;20142;-76
2023/07/13 08:13:34;;;;;;;0.82;0.60;;;25.50;92.60;;;;;;5029643;28;20033;-79
2023/07/13 08:16:00;;;;;;;0.75;0.40;;;25.60;93.00;;;;;;5032454;28;20022;-76
2023/07/13 08:18:28;;;;;;;0.82;0.43;;;25.70;92.90;;;;;;5030827;28;20029;-76
2023/07/13 08:20:56;;;;;;;1.45;0.50;;;25.70;92.30;;;;;;5032296;28;20025;-77
2023/07/13 08:23:22;;;;;;;0.98;0.50;;;25.70;92.30;;;;;;5032111;28;20390;-78
2023/07/13 08:25:57;;;;;;;0.52;0.52;;;25.70;92.90;;;;;;5032296;28;20100;-77
2023/07/13 08:28:22;;;;;;;1.10;0.52;;;25.90;93.50;;;;;;5031020;28;20037;-76
2023/07/13 08:30:48;;;;;;;2.25;0.77;;;26.00;93.40;;;;;;5030405;28;20449;-78
2023/07/13 08:33:18;;;;;;;5.30;1.27;;;26.30;94.00;;;;;;5030687;28;20486;-77
2023/07/13 08:35:48;;;;;;;1.30;1.00;;;26.60;94.60;;;;;;5030899;28;20133;-78
2023/07/13 08:38:16;;;;;;;0.52;0.52;;;26.80;93.10;;;;;;5032336;28;20065;-75
2023/07/13 08:40:42;;;;;;;2.75;0.57;;;26.80;92.00;;;;;;5032868;28;20637;-76
2023/07/13 08:43:20;;;;;;;0.68;0.40;;;26.90;91.80;;;;;;5031928;28;20108;-76
2023/07/13 08:45:55;;;;;;;8.35;1.00;;;26.60;91.20;;;;;;5032918;28;20509;-77
2023/07/13 08:48:28;;;;;;;0.60;0.60;;;26.80;91.20;;;;;;5032455;28;20036;-76
2023/07/13 08:50:58;;;;;;;1.35;0.40;;;26.70;91.90;;;;;;5034254;28;20066;-78
2023/07/13 08:53:31;;;;;;;2.13;1.92;;;26.60;90.60;;;;;;5033835;28;20029;-76
2023/07/13 08:55:59;;;;;;;1.35;0.90;;;26.80;91.10;;;;;;5032089;28;20028;-76
2023/07/13 08:58:28;;;;;;;6.13;1.08;;;26.70;89.40;;;;;;5027565;28;20152;-76
2023/07/13 09:01:12;;;;;;;0.50;0.40;;;26.60;86.50;;;;;;5027628;28;19994;-78
2023/07/13 09:03:59;;;;;;;1.05;0.65;;;26.50;90.30;;;;;;5025059;28;20072;-76
2023/07/13 09:06:41;;;;;;;0.70;0.60;;;26.60;87.00;;;;;;5035127;28;20067;-76
2023/07/13 09:09:33;;;;;;;0.95;0.50;;;26.80;83.00;;;;;;5037418;28;20028;-77
2023/07/13 09:12:13;;;;;;;0.90;0.73;;;26.90;84.70;;;;;;5037940;28;20028;-76
2023/07/13 09:14:44;;;;;;;1.35;1.30;;;27.20;85.20;;;;;;5035723;28;20026;-77
2023/07/13 09:17:19;;;;;;;0.40;0.40;;;27.60;85.60;;;;;;5037455;28;20032;-76
2023/07/13 09:19:47;;;;;;;;;;;27.80;82.50;;;;;;5037227;28;20505;-77
2023/07/13 09:22:17;;;;;;;0.88;0.65;;;28.00;82.70;;;;;;5036436;28;19905;-77
2023/07/13 09:24:52;;;;;;;0.68;0.68;;;28.00;77.30;;;;;;5036204;28;20052;-75
2023/07/13 09:27:24;;;;;;;0.50;0.50;;;27.90;78.10;;;;;;5034683;28;20117;-77
2023/07/13 09:30:12;;;;;;;0.45;0.45;;;27.90;79.80;;;;;;5038257;28;20581;-76
2023/07/13 09:32:43;;;;;;;0.40;0.40;;;28.10;80.80;;;;;;5036540;28;20032;-75
2023/07/13 09:35:18;;;;;;;0.50;0.50;;;28.40;82.80;;;;;;5035881;28;20026;-76
2023/07/13 09:37:46;;;;;;;1.05;0.50;;;28.60;83.30;;;;;;5036821;28;20032;-76
2023/07/13 09:40:23;;;;;;;1.45;0.50;;;28.90;81.30;;;;;;5036002;28;20105;-75
2023/07/13 09:42:49;;;;;;;0.80;0.80;;;29.20;81.10;;;;;;5037126;28;20018;-78
2023/07/13 09:45:30;;;;;;;1.63;0.90;;;29.40;80.00;;;;;;5037664;28;20378;-77
2023/07/13 09:48:03;;;;;;;2.10;0.70;;;29.40;76.90;;;;;;5034213;28;20045;-77
2023/07/13 09:50:29;;;;;;;0.63;0.63;;;29.50;77.50;;;;;;5033539;28;20026;-76
2023/07/13 09:52:58;;;;;;;0.50;0.50;;;29.10;74.70;;;;;;5035846;28;20026;-79
2023/07/13 09:55:37;;;;;;;1.08;0.77;;;29.00;75.60;;;;;;5037837;28;20025;-77
2023/07/13 09:58:14;;;;;;;1.67;0.40;;;29.00;73.20;;;;;;5035940;28;20044;-75
2023/07/13 10:00:41;;;;;;;1.40;0.55;;;28.80;75.50;;;;;;5036177;28;20021;-78
2023/07/13 10:03:46;;;;;;;0.40;0.40;;;28.90;74.30;;;;;;5036543;28;20048;-76
2023/07/13 10:06:14;;;;;;;1.17;0.85;;;29.10;78.50;;;;;;5030264;28;20041;-77
2023/07/13 10:08:40;;;;;;;0.98;0.77;;;28.80;79.10;;;;;;5037390;28;20043;-78
2023/07/13 10:11:10;;;;;;;0.43;0.40;;;28.90;76.80;;;;;;5038347;28;20500;-77
2023/07/13 10:13:41;;;;;;;5.00;0.85;;;29.10;71.20;;;;;;5036641;28;20047;-77
2023/07/13 10:16:08;;;;;;;1.08;0.43;;;29.20;76.70;;;;;;5032970;28;20025;-76
2023/07/13 10:18:47;;;;;;;0.90;0.55;;;29.30;79.40;;;;;;5034494;28;20026;-77
2023/07/13 10:21:18;;;;;;;0.65;0.65;;;29.30;74.40;;;;;;5033818;28;20394;-76
2023/07/13 10:23:49;;;;;;;4.28;0.82;;;29.10;71.00;;;;;;5034131;28;20025;-77
2023/07/13 10:26:22;;;;;;;0.43;0.43;;;29.10;71.00;;;;;;5033994;28;20018;-78
2023/07/13 10:28:55;;;;;;;0.35;0.35;;;29.20;71.20;;;;;;5034386;28;20018;-76
2023/07/13 10:31:21;;;;;;;0.57;0.40;;;29.30;71.60;;;;;;5035301;28;20026;-77
2023/07/13 10:33:47;;;;;;;1.25;0.50;;;29.10;73.20;;;;;;5036499;28;20025;-77
2023/07/13 10:36:25;;;;;;;0.43;0.43;;;29.10;71.10;;;;;;5035412;28;20056;-75
2023/07/13 10:38:52;;;;;;;1.65;0.40;;;29.10;71.00;;;;;;5033857;28;20022;-75
2023/07/13 10:41:22;;;;;;;0.40;0.30;;;29.20;74.20;;;;;;5037096;28;20044;-77
2023/07/13 10:43:51;;;;;;;0.60;0.60;;;28.80;75.70;;;;;;5033742;28;20025;-75
2023/07/13 10:46:20;;;;;;;1.00;0.50;;;29.00;74.30;;;;;;5034694;28;20017;-75
2023/07/13 10:48:52;;;;;;;0.57;0.40;;;29.20;78.40;;;;;;5035035;28;20032;-75
2023/07/13 10:51:22;;;;;;;1.85;0.45;;;29.30;74.60;;;;;;5035244;28;20504;-75
2023/07/13 10:54:08;;;;;;;0.85;0.75;;;29.40;74.40;;;;;;5033785;28;20037;-75
2023/07/13 10:56:35;;;;;;;0.95;0.60;;;29.50;73.20;;;;;;5034110;28;20021;-78
2023/07/13 10:59:29;;;;;;;0.45;0.45;;;29.60;73.90;;;;;;5036589;28;20030;-77
2023/07/13 11:01:57;;;;;;;1.30;0.70;;;29.70;72.60;;;;;;5030194;28;20030;-77
2023/07/13 11:04:25;;;;;;;0.60;0.60;;;29.70;68.80;;;;;;5034397;28;20025;-74
2023/07/13 11:06:56;;;;;;;2.00;0.55;;;29.80;69.10;;;;;;5035105;28;20021;-74
2023/07/13 11:09:37;;;;;;;1.30;0.50;;;30.00;70.40;;;;;;5033856;28;20108;-76
2023/07/13 11:12:26;;;;;;;2.45;0.47;;;30.20;68.70;;;;;;5034706;28;20482;-76
2023/07/13 11:14:55;;;;;;;0.63;0.60;;;29.80;67.80;;;;;;5033312;28;20139;-76
2023/07/13 11:17:29;;;;;;;0.68;0.50;;;30.00;68.30;;;;;;5034891;28;20057;-76
2023/07/13 11:20:09;;;;;;;0.75;0.50;;;30.00;70.80;;;;;;5033275;28;20067;-76
2023/07/13 11:23:13;;;;;;;0.82;0.60;;;30.00;70.90;;;;;;5034759;28;20528;-74
2023/07/13 11:25:39;;;;;;;0.60;0.60;;;29.70;70.80;;;;;;5034329;28;20025;-77
2023/07/13 11:28:10;;;;;;;3.33;0.82;;;29.70;71.40;;;;;;5034164;28;20018;-76
2023/07/13 11:30:55;;;;;;;0.63;0.60;;;29.50;72.60;;;;;;5034189;28;20025;-75
2023/07/13 11:33:24;;;;;;;0.52;0.50;;;29.70;73.00;;;;;;5031761;28;20029;-76
2023/07/13 11:36:06;;;;;;;0.60;0.43;;;29.70;71.70;;;;;;5033480;28;20028;-78
2023/07/13 11:38:41;;;;;;;1.13;0.70;;;29.80;71.80;;;;;;5035074;28;20497;-76
2023/07/13 11:41:26;;;;;;;0.73;0.40;;;30.00;70.30;;;;;;5034211;28;20071;-78
2023/07/13 11:44:07;;;;;;;2.15;0.68;;;30.20;68.90;;;;;;5034234;28;20032;-77
2023/07/13 11:46:33;;;;;;;0.70;0.70;;;30.10;67.20;;;;;;5034280;28;20021;-75
2023/07/13 11:48:59;;;;;;;0.40;0.40;;;30.10;66.60;;;;;;5033253;28;20036;-77
2023/07/13 11:51:33;;;;;;;0.88;0.85;;;29.80;67.50;;;;;;5033817;28;20057;-76
2023/07/13 11:54:03;;;;;;;2.37;0.30;;;29.70;69.90;;;;;;5031958;28;20032;-74
2023/07/13 11:56:29;;;;;;;0.70;0.40;;;29.80;67.70;;;;;;5033258;28;20032;-78
2023/07/13 11:58:57;;;;;;;0.57;0.50;;;29.80;66.90;;;;;;5032608;28;20025;-78
2023/07/13 12:01:32;;;;;;;1.30;0.40;;;29.70;68.10;;;;;;5032372;28;20363;-77
2023/07/13 12:04:00;;;;;;;0.47;0.43;;;29.60;69.50;;;;;;5033818;28;20018;-77
2023/07/13 12:06:27;;;;;;;0.82;0.70;;;29.50;69.60;;;;;;5033140;28;20026;-77
2023/07/13 12:08:58;;;;;;;0.40;0.40;;;29.70;68.70;;;;;;5033083;28;20609;-76
2023/07/13 12:11:23;;;;;;;0.70;0.70;;;29.70;67.20;;;;;;5033698;28;20036;-77
2023/07/13 12:13:50;;;;;;;0.60;0.60;;;29.80;67.00;;;;;;5032021;28;20386;-74
2023/07/13 12:16:29;;;;;;;0.55;0.55;;;29.80;66.90;;;;;;5033377;28;20040;-75
2023/07/13 12:18:56;;;;;;;0.98;0.57;;;29.70;67.10;;;;;;5031548;28;20037;-78
2023/07/13 12:21:30;;;;;;;1.35;0.60;;;29.70;68.20;;;;;;5032331;28;20100;-78
2023/07/13 12:23:55;;;;;;;0.85;0.47;;;29.60;68.10;;;;;;5031714;28;20026;-76
2023/07/13 12:26:21;;;;;;;2.15;0.50;;;29.70;69.80;;;;;;5033056;28;20528;-76
2023/07/13 12:28:56;;;;;;;0.50;0.40;;;29.50;68.70;;;;;;5033778;28;20390;-77
2023/07/13 12:31:33;;;;;;;;;;;29.50;71.90;;;;;;5032540;28;20079;-77
2023/07/13 12:34:01;;;;;;;0.90;0.60;;;29.50;70.00;;;;;;5033860;28;19905;-78
2023/07/13 12:36:29;;;;;;;0.40;0.40;;;29.50;71.00;;;;;;5032668;28;20084;-77
2023/07/13 12:38:54;;;;;;;1.50;0.60;;;29.70;71.70;;;;;;5033252;28;20034;-78
2023/07/13 12:41:20;;;;;;;2.92;0.70;;;29.50;68.70;;;;;;5035345;28;20393;-76
2023/07/13 12:43:46;;;;;;;1.30;0.80;;;29.60;72.60;;;;;;5035275;28;20486;-78
2023/07/13 12:46:19;;;;;;;0.80;0.80;;;29.50;72.80;;;;;;5035931;28;20026;-75
2023/07/13 12:48:49;;;;;;;0.98;0.82;;;29.40;73.20;;;;;;5037402;28;20025;-76
2023/07/13 12:51:15;;;;;;;2.00;0.70;;;29.50;75.40;;;;;;5038640;28;20023;-78
2023/07/13 12:53:58;;;;;;;0.85;0.40;;;29.10;76.70;;;;;;5037178;28;20082;-77
2023/07/13 12:56:27;;;;;;;1.17;0.55;;;28.60;77.10;;;;;;5036515;28;20022;-76